sensor_id;sensor_type;location;lat;lon;timestamp;P1;durP1;ratioP1;P2;durP2;ratioP2
48203;SDS011;33994;50.998;5.864;2023-07-20T00:01:03;4.60;;;2.88;;
48203;SDS011;33994;50.998;5.864;2023-07-20T00:04:06;8.13;;;3.60;;
48203;SDS011;33994;50.998;5.864;2023-07-20T00:07:10;12.95;;;4.35;;
48203;SDS011;33994;50.998;5.864;2023-07-20T00:10:14;11.18;;;4.15;;
48203;SDS011;33994;50.998;5.864;2023-07-20T00:13:17;6.88;;;3.92;;
48203;SDS011;33994;50.998;5.864;2023-07-20T00:16:20;10.25;;;3.90;;
48203;SDS011;33994;50.998;5.864;2023-07-20T00:19:23;5.88;;;3.60;;
48203;SDS011;33994;50.998;5.864;2023-07-20T00:22:28;6.57;;;3.20;;
48203;SDS011;33994;50.998;5.864;2023-07-20T00:25:32;6.00;;;3.05;;
48203;SDS011;33994;50.998;5.864;2023-07-20T00:28:35;7.00;;;2.90;;
48203;SDS011;33994;50.998;5.864;2023-07-20T00:31:38;7.22;;;3.10;;
48203;SDS011;33994;50.998;5.864;2023-07-20T00:34:41;5.90;;;2.70;;
48203;SDS011;33994;50.998;5.864;2023-07-20T00:37:46;7.50;;;3.28;;
48203;SDS011;33994;50.998;5.864;2023-07-20T00:40:49;6.07;;;2.80;;
48203;SDS011;33994;50.998;5.864;2023-07-20T00:43:52;6.60;;;2.78;;
48203;SDS011;33994;50.998;5.864;2023-07-20T00:46:56;7.72;;;3.00;;
48203;SDS011;33994;50.998;5.864;2023-07-20T00:49:59;6.00;;;3.22;;
48203;SDS011;33994;50.998;5.864;2023-07-20T00:53:04;7.45;;;3.15;;
48203;SDS011;33994;50.998;5.864;2023-07-20T00:56:07;13.98;;;3.83;;
48203;SDS011;33994;50.998;5.864;2023-07-20T00:59:11;9.25;;;3.50;;
48203;SDS011;33994;50.998;5.864;2023-07-20T01:02:14;7.03;;;3.38;;
48203;SDS011;33994;50.998;5.864;2023-07-20T01:05:17;6.18;;;2.80;;
48203;SDS011;33994;50.998;5.864;2023-07-20T01:08:24;4.95;;;2.85;;
48203;SDS011;33994;50.998;5.864;2023-07-20T01:11:36;4.40;;;2.70;;
48203;SDS011;33994;50.998;5.864;2023-07-20T01:14:41;6.28;;;3.00;;
48203;SDS011;33994;50.998;5.864;2023-07-20T01:17:44;6.75;;;2.97;;
48203;SDS011;33994;50.998;5.864;2023-07-20T01:20:48;6.07;;;3.00;;
48203;SDS011;33994;50.998;5.864;2023-07-20T01:31:19;7.00;;;2.95;;
48203;SDS011;33994;50.998;5.864;2023-07-20T01:34:24;8.57;;;3.10;;
48203;SDS011;33994;50.998;5.864;2023-07-20T01:37:27;7.97;;;3.40;;
48203;SDS011;33994;50.998;5.864;2023-07-20T01:40:33;8.18;;;3.28;;
48203;SDS011;33994;50.998;5.864;2023-07-20T01:43:38;10.18;;;3.58;;
48203;SDS011;33994;50.998;5.864;2023-07-20T01:46:42;8.15;;;3.60;;
48203;SDS011;33994;50.998;5.864;2023-07-20T01:49:45;5.35;;;3.35;;
48203;SDS011;33994;50.998;5.864;2023-07-20T01:52:48;10.77;;;4.43;;
48203;SDS011;33994;50.998;5.864;2023-07-20T01:55:52;8.15;;;3.42;;
48203;SDS011;33994;50.998;5.864;2023-07-20T01:58:55;9.38;;;3.45;;
48203;SDS011;33994;50.998;5.864;2023-07-20T02:02:00;5.85;;;3.33;;
48203;SDS011;33994;50.998;5.864;2023-07-20T02:05:03;10.10;;;3.47;;
48203;SDS011;33994;50.998;5.864;2023-07-20T02:08:07;5.93;;;3.53;;
48203;SDS011;33994;50.998;5.864;2023-07-20T02:11:10;8.68;;;3.42;;
48203;SDS011;33994;50.998;5.864;2023-07-20T02:14:14;7.47;;;3.40;;
48203;SDS011;33994;50.998;5.864;2023-07-20T02:17:19;9.25;;;3.28;;
48203;SDS011;33994;50.998;5.864;2023-07-20T02:20:22;7.43;;;3.28;;
48203;SDS011;33994;50.998;5.864;2023-07-20T02:23:25;13.80;;;3.65;;
48203;SDS011;33994;50.998;5.864;2023-07-20T02:26:28;6.28;;;3.70;;
48203;SDS011;33994;50.998;5.864;2023-07-20T02:29:31;8.27;;;3.50;;
48203;SDS011;33994;50.998;5.864;2023-07-20T02:32:36;8.15;;;3.35;;
48203;SDS011;33994;50.998;5.864;2023-07-20T02:35:40;5.05;;;2.92;;
48203;SDS011;33994;50.998;5.864;2023-07-20T02:38:43;9.75;;;3.75;;
48203;SDS011;33994;50.998;5.864;2023-07-20T02:41:46;9.27;;;4.18;;
48203;SDS011;33994;50.998;5.864;2023-07-20T02:44:50;9.43;;;3.88;;
48203;SDS011;33994;50.998;5.864;2023-07-20T02:47:54;13.13;;;3.65;;
48203;SDS011;33994;50.998;5.864;2023-07-20T02:50:57;13.95;;;3.80;;
48203;SDS011;33994;50.998;5.864;2023-07-20T02:54:01;7.32;;;4.05;;
48203;SDS011;33994;50.998;5.864;2023-07-20T02:57:04;11.00;;;3.70;;
48203;SDS011;33994;50.998;5.864;2023-07-20T03:00:08;12.27;;;3.97;;
48203;SDS011;33994;50.998;5.864;2023-07-20T03:03:13;8.73;;;3.58;;
48203;SDS011;33994;50.998;5.864;2023-07-20T03:06:16;7.85;;;3.53;;
48203;SDS011;33994;50.998;5.864;2023-07-20T03:09:20;8.85;;;3.28;;
48203;SDS011;33994;50.998;5.864;2023-07-20T03:12:23;8.77;;;3.88;;
48203;SDS011;33994;50.998;5.864;2023-07-20T03:15:26;10.45;;;3.70;;
48203;SDS011;33994;50.998;5.864;2023-07-20T03:18:31;7.38;;;4.07;;
48203;SDS011;33994;50.998;5.864;2023-07-20T03:21:34;7.43;;;3.40;;
48203;SDS011;33994;50.998;5.864;2023-07-20T03:24:37;6.25;;;3.35;;
48203;SDS011;33994;50.998;5.864;2023-07-20T03:27:40;7.72;;;3.50;;
48203;SDS011;33994;50.998;5.864;2023-07-20T03:30:43;11.85;;;4.93;;
48203;SDS011;33994;50.998;5.864;2023-07-20T03:33:48;7.32;;;3.70;;
48203;SDS011;33994;50.998;5.864;2023-07-20T03:36:51;8.90;;;4.07;;
48203;SDS011;33994;50.998;5.864;2023-07-20T03:39:54;10.20;;;4.05;;
48203;SDS011;33994;50.998;5.864;2023-07-20T03:42:57;11.18;;;4.60;;
48203;SDS011;33994;50.998;5.864;2023-07-20T03:46:01;8.40;;;4.15;;
48203;SDS011;33994;50.998;5.864;2023-07-20T03:49:05;8.50;;;4.68;;
48203;SDS011;33994;50.998;5.864;2023-07-20T03:52:08;10.02;;;4.40;;
48203;SDS011;33994;50.998;5.864;2023-07-20T03:55:12;11.63;;;4.95;;
48203;SDS011;33994;50.998;5.864;2023-07-20T03:58:15;10.77;;;4.90;;
48203;SDS011;33994;50.998;5.864;2023-07-20T04:01:18;12.82;;;5.28;;
48203;SDS011;33994;50.998;5.864;2023-07-20T04:04:23;9.85;;;5.32;;
48203;SDS011;33994;50.998;5.864;2023-07-20T04:07:26;10.23;;;5.18;;
48203;SDS011;33994;50.998;5.864;2023-07-20T04:10:30;10.23;;;5.93;;
48203;SDS011;33994;50.998;5.864;2023-07-20T04:13:33;11.50;;;5.65;;
48203;SDS011;33994;50.998;5.864;2023-07-20T04:16:36;17.15;;;6.63;;
48203;SDS011;33994;50.998;5.864;2023-07-20T04:19:40;12.88;;;5.15;;
48203;SDS011;33994;50.998;5.864;2023-07-20T04:22:44;13.25;;;5.43;;
48203;SDS011;33994;50.998;5.864;2023-07-20T04:25:47;12.85;;;5.47;;
48203;SDS011;33994;50.998;5.864;2023-07-20T04:28:50;10.70;;;5.25;;
48203;SDS011;33994;50.998;5.864;2023-07-20T04:31:53;14.73;;;5.57;;
48203;SDS011;33994;50.998;5.864;2023-07-20T04:34:58;15.60;;;5.63;;
48203;SDS011;33994;50.998;5.864;2023-07-20T04:38:01;11.68;;;5.57;;
48203;SDS011;33994;50.998;5.864;2023-07-20T04:41:04;9.27;;;5.45;;
48203;SDS011;33994;50.998;5.864;2023-07-20T04:44:07;13.57;;;5.70;;
48203;SDS011;33994;50.998;5.864;2023-07-20T04:47:11;14.15;;;6.22;;
48203;SDS011;33994;50.998;5.864;2023-07-20T04:50:15;10.95;;;6.90;;
48203;SDS011;33994;50.998;5.864;2023-07-20T04:53:18;11.98;;;7.47;;
48203;SDS011;33994;50.998;5.864;2023-07-20T04:56:21;12.30;;;7.68;;
48203;SDS011;33994;50.998;5.864;2023-07-20T04:59:24;11.00;;;7.95;;
48203;SDS011;33994;50.998;5.864;2023-07-20T05:02:28;16.48;;;6.70;;
48203;SDS011;33994;50.998;5.864;2023-07-20T05:05:32;15.02;;;7.93;;
48203;SDS011;33994;50.998;5.864;2023-07-20T05:08:35;16.00;;;8.15;;
48203;SDS011;33994;50.998;5.864;2023-07-20T05:11:39;13.57;;;7.30;;
48203;SDS011;33994;50.998;5.864;2023-07-20T05:14:42;12.23;;;7.07;;
48203;SDS011;33994;50.998;5.864;2023-07-20T05:17:45;14.32;;;8.20;;
48203;SDS011;33994;50.998;5.864;2023-07-20T05:20:50;14.20;;;8.65;;
48203;SDS011;33994;50.998;5.864;2023-07-20T05:23:53;18.63;;;10.05;;
48203;SDS011;33994;50.998;5.864;2023-07-20T05:26:57;15.18;;;9.05;;
48203;SDS011;33994;50.998;5.864;2023-07-20T05:30:01;17.20;;;9.38;;
48203;SDS011;33994;50.998;5.864;2023-07-20T05:33:04;15.98;;;8.48;;
48203;SDS011;33994;50.998;5.864;2023-07-20T05:36:08;22.10;;;9.50;;
48203;SDS011;33994;50.998;5.864;2023-07-20T05:39:11;12.13;;;8.15;;
48203;SDS011;33994;50.998;5.864;2023-07-20T05:42:15;18.10;;;8.95;;
48203;SDS011;33994;50.998;5.864;2023-07-20T05:45:18;13.65;;;8.77;;
48203;SDS011;33994;50.998;5.864;2023-07-20T05:48:21;14.70;;;8.52;;
48203;SDS011;33994;50.998;5.864;2023-07-20T05:51:27;13.30;;;8.32;;
48203;SDS011;33994;50.998;5.864;2023-07-20T05:54:30;14.50;;;8.50;;
48203;SDS011;33994;50.998;5.864;2023-07-20T05:57:34;12.90;;;8.23;;
48203;SDS011;33994;50.998;5.864;2023-07-20T06:00:37;12.68;;;8.00;;
48203;SDS011;33994;50.998;5.864;2023-07-20T06:03:40;14.93;;;8.52;;
48203;SDS011;33994;50.998;5.864;2023-07-20T06:06:44;15.30;;;7.50;;
48203;SDS011;33994;50.998;5.864;2023-07-20T06:09:48;13.57;;;7.05;;
48203;SDS011;33994;50.998;5.864;2023-07-20T06:12:51;15.10;;;7.10;;
48203;SDS011;33994;50.998;5.864;2023-07-20T06:15:54;11.25;;;7.22;;
48203;SDS011;33994;50.998;5.864;2023-07-20T06:18:58;13.50;;;7.72;;
48203;SDS011;33994;50.998;5.864;2023-07-20T06:22:04;14.65;;;7.65;;
48203;SDS011;33994;50.998;5.864;2023-07-20T06:25:08;17.98;;;8.05;;
48203;SDS011;33994;50.998;5.864;2023-07-20T06:28:12;14.00;;;8.77;;
48203;SDS011;33994;50.998;5.864;2023-07-20T06:31:16;13.15;;;8.15;;
48203;SDS011;33994;50.998;5.864;2023-07-20T06:34:19;13.40;;;7.50;;
48203;SDS011;33994;50.998;5.864;2023-07-20T06:37:23;14.48;;;8.18;;
48203;SDS011;33994;50.998;5.864;2023-07-20T06:40:27;14.82;;;8.68;;
48203;SDS011;33994;50.998;5.864;2023-07-20T06:43:30;15.38;;;8.40;;
48203;SDS011;33994;50.998;5.864;2023-07-20T06:46:33;12.35;;;7.78;;
48203;SDS011;33994;50.998;5.864;2023-07-20T06:49:36;18.98;;;9.73;;
48203;SDS011;33994;50.998;5.864;2023-07-20T06:52:41;11.20;;;7.82;;
48203;SDS011;33994;50.998;5.864;2023-07-20T06:55:44;13.07;;;8.88;;
48203;SDS011;33994;50.998;5.864;2023-07-20T06:58:47;13.57;;;8.35;;
48203;SDS011;33994;50.998;5.864;2023-07-20T07:01:50;11.60;;;7.88;;
48203;SDS011;33994;50.998;5.864;2023-07-20T07:04:53;12.55;;;7.15;;
48203;SDS011;33994;50.998;5.864;2023-07-20T07:07:58;9.80;;;6.28;;
48203;SDS011;33994;50.998;5.864;2023-07-20T07:11:01;8.50;;;6.35;;
48203;SDS011;33994;50.998;5.864;2023-07-20T07:14:05;9.10;;;5.40;;
48203;SDS011;33994;50.998;5.864;2023-07-20T07:17:08;9.88;;;6.10;;
48203;SDS011;33994;50.998;5.864;2023-07-20T07:20:11;11.02;;;7.00;;
48203;SDS011;33994;50.998;5.864;2023-07-20T07:23:16;10.75;;;7.30;;
48203;SDS011;33994;50.998;5.864;2023-07-20T07:26:19;10.73;;;6.97;;
48203;SDS011;33994;50.998;5.864;2023-07-20T07:29:22;12.15;;;7.18;;
48203;SDS011;33994;50.998;5.864;2023-07-20T07:32:25;9.95;;;6.22;;
48203;SDS011;33994;50.998;5.864;2023-07-20T07:35:28;7.05;;;5.00;;
48203;SDS011;33994;50.998;5.864;2023-07-20T07:38:33;8.38;;;5.13;;
48203;SDS011;33994;50.998;5.864;2023-07-20T07:41:36;8.40;;;5.18;;
48203;SDS011;33994;50.998;5.864;2023-07-20T07:44:39;6.80;;;5.00;;
48203;SDS011;33994;50.998;5.864;2023-07-20T07:47:43;7.07;;;5.15;;
48203;SDS011;33994;50.998;5.864;2023-07-20T07:50:46;11.73;;;5.72;;
48203;SDS011;33994;50.998;5.864;2023-07-20T07:53:50;7.85;;;4.75;;
48203;SDS011;33994;50.998;5.864;2023-07-20T07:56:53;6.93;;;4.55;;
48203;SDS011;33994;50.998;5.864;2023-07-20T07:59:57;9.13;;;5.32;;
48203;SDS011;33994;50.998;5.864;2023-07-20T08:03:00;9.98;;;5.10;;
48203;SDS011;33994;50.998;5.864;2023-07-20T08:06:03;9.50;;;5.15;;
48203;SDS011;33994;50.998;5.864;2023-07-20T08:09:08;7.43;;;5.10;;
48203;SDS011;33994;50.998;5.864;2023-07-20T08:12:11;9.45;;;4.47;;
48203;SDS011;33994;50.998;5.864;2023-07-20T08:15:14;10.10;;;4.85;;
48203;SDS011;33994;50.998;5.864;2023-07-20T08:18:17;8.07;;;4.28;;
48203;SDS011;33994;50.998;5.864;2023-07-20T08:21:20;4.65;;;3.35;;
48203;SDS011;33994;50.998;5.864;2023-07-20T08:24:25;4.72;;;3.00;;
48203;SDS011;33994;50.998;5.864;2023-07-20T08:27:28;4.32;;;3.10;;
48203;SDS011;33994;50.998;5.864;2023-07-20T08:30:39;5.00;;;3.03;;
48203;SDS011;33994;50.998;5.864;2023-07-20T08:33:42;5.03;;;3.38;;
48203;SDS011;33994;50.998;5.864;2023-07-20T08:36:45;4.35;;;2.58;;
48203;SDS011;33994;50.998;5.864;2023-07-20T08:39:50;4.10;;;2.95;;
48203;SDS011;33994;50.998;5.864;2023-07-20T08:42:53;4.60;;;3.38;;
48203;SDS011;33994;50.998;5.864;2023-07-20T08:45:58;4.55;;;2.70;;
48203;SDS011;33994;50.998;5.864;2023-07-20T08:49:01;3.25;;;2.90;;
48203;SDS011;33994;50.998;5.864;2023-07-20T08:52:04;6.03;;;2.80;;
48203;SDS011;33994;50.998;5.864;2023-07-20T08:55:09;4.95;;;2.95;;
48203;SDS011;33994;50.998;5.864;2023-07-20T08:58:13;5.82;;;3.33;;
48203;SDS011;33994;50.998;5.864;2023-07-20T09:01:18;4.10;;;3.20;;
48203;SDS011;33994;50.998;5.864;2023-07-20T09:04:22;5.88;;;3.20;;
48203;SDS011;33994;50.998;5.864;2023-07-20T09:07:26;5.38;;;3.42;;
48203;SDS011;33994;50.998;5.864;2023-07-20T09:10:30;6.07;;;2.33;;
48203;SDS011;33994;50.998;5.864;2023-07-20T09:13:33;6.15;;;2.67;;
48203;SDS011;33994;50.998;5.864;2023-07-20T09:16:46;2.13;;;2.00;;
48203;SDS011;33994;50.998;5.864;2023-07-20T09:19:49;6.05;;;3.05;;
48203;SDS011;33994;50.998;5.864;2023-07-20T09:22:53;10.15;;;3.08;;
48203;SDS011;33994;50.998;5.864;2023-07-20T09:25:58;4.45;;;3.33;;
48203;SDS011;33994;50.998;5.864;2023-07-20T09:29:05;5.60;;;3.08;;
48203;SDS011;33994;50.998;5.864;2023-07-20T09:32:10;5.15;;;3.58;;
48203;SDS011;33994;50.998;5.864;2023-07-20T09:35:14;6.40;;;2.70;;
48203;SDS011;33994;50.998;5.864;2023-07-20T09:38:18;4.35;;;1.98;;
48203;SDS011;33994;50.998;5.864;2023-07-20T09:41:22;3.08;;;1.90;;
48203;SDS011;33994;50.998;5.864;2023-07-20T09:44:27;4.18;;;2.85;;
48203;SDS011;33994;50.998;5.864;2023-07-20T09:47:30;6.50;;;2.80;;
48203;SDS011;33994;50.998;5.864;2023-07-20T09:50:34;5.28;;;2.20;;
48203;SDS011;33994;50.998;5.864;2023-07-20T09:53:41;6.60;;;2.95;;
48203;SDS011;33994;50.998;5.864;2023-07-20T09:56:45;6.28;;;3.83;;
48203;SDS011;33994;50.998;5.864;2023-07-20T09:59:50;4.68;;;3.08;;
48203;SDS011;33994;50.998;5.864;2023-07-20T10:02:54;3.58;;;2.10;;
48203;SDS011;33994;50.998;5.864;2023-07-20T10:06:00;3.70;;;2.22;;
48203;SDS011;33994;50.998;5.864;2023-07-20T10:09:08;4.38;;;2.30;;
48203;SDS011;33994;50.998;5.864;2023-07-20T10:12:14;3.53;;;2.30;;
48203;SDS011;33994;50.998;5.864;2023-07-20T10:15:19;3.40;;;2.50;;
48203;SDS011;33994;50.998;5.864;2023-07-20T10:21:32;5.70;;;3.10;;
48203;SDS011;33994;50.998;5.864;2023-07-20T10:24:38;4.97;;;3.13;;
48203;SDS011;33994;50.998;5.864;2023-07-20T10:27:43;6.65;;;2.85;;
48203;SDS011;33994;50.998;5.864;2023-07-20T10:30:47;5.30;;;2.92;;
48203;SDS011;33994;50.998;5.864;2023-07-20T10:33:51;4.35;;;3.05;;
48203;SDS011;33994;50.998;5.864;2023-07-20T10:36:54;4.53;;;2.90;;
48203;SDS011;33994;50.998;5.864;2023-07-20T10:39:57;4.43;;;2.83;;
48203;SDS011;33994;50.998;5.864;2023-07-20T10:43:02;5.00;;;3.10;;
48203;SDS011;33994;50.998;5.864;2023-07-20T10:46:06;6.72;;;2.70;;
48203;SDS011;33994;50.998;5.864;2023-07-20T10:49:10;6.35;;;2.97;;
48203;SDS011;33994;50.998;5.864;2023-07-20T10:52:14;4.60;;;2.97;;
48203;SDS011;33994;50.998;5.864;2023-07-20T10:55:17;4.80;;;2.90;;
48203;SDS011;33994;50.998;5.864;2023-07-20T10:58:22;4.53;;;2.67;;
48203;SDS011;33994;50.998;5.864;2023-07-20T11:01:27;6.00;;;2.42;;
48203;SDS011;33994;50.998;5.864;2023-07-20T11:04:37;4.72;;;3.00;;
48203;SDS011;33994;50.998;5.864;2023-07-20T11:07:41;2.97;;;2.38;;
48203;SDS011;33994;50.998;5.864;2023-07-20T11:10:44;3.10;;;2.40;;
48203;SDS011;33994;50.998;5.864;2023-07-20T11:13:55;3.78;;;2.28;;
48203;SDS011;33994;50.998;5.864;2023-07-20T11:17:03;3.28;;;2.10;;
48203;SDS011;33994;50.998;5.864;2023-07-20T11:20:14;2.35;;;2.05;;
48203;SDS011;33994;50.998;5.864;2023-07-20T11:23:19;2.35;;;2.13;;
48203;SDS011;33994;50.998;5.864;2023-07-20T11:26:23;3.22;;;2.20;;
48203;SDS011;33994;50.998;5.864;2023-07-20T11:29:28;4.03;;;2.42;;
48203;SDS011;33994;50.998;5.864;2023-07-20T11:32:31;5.20;;;2.20;;
48203;SDS011;33994;50.998;5.864;2023-07-20T11:35:35;5.60;;;2.75;;
48203;SDS011;33994;50.998;5.864;2023-07-20T11:38:40;3.60;;;2.20;;
48203;SDS011;33994;50.998;5.864;2023-07-20T11:41:46;2.58;;;2.38;;
48203;SDS011;33994;50.998;5.864;2023-07-20T11:44:52;2.63;;;2.10;;
48203;SDS011;33994;50.998;5.864;2023-07-20T11:47:56;3.20;;;1.90;;
48203;SDS011;33994;50.998;5.864;2023-07-20T11:51:01;2.08;;;1.88;;
48203;SDS011;33994;50.998;5.864;2023-07-20T11:54:05;2.72;;;1.90;;
48203;SDS011;33994;50.998;5.864;2023-07-20T11:57:15;3.92;;;1.75;;
48203;SDS011;33994;50.998;5.864;2023-07-20T12:00:20;2.55;;;1.60;;
48203;SDS011;33994;50.998;5.864;2023-07-20T12:03:27;4.13;;;1.63;;
48203;SDS011;33994;50.998;5.864;2023-07-20T12:06:31;4.07;;;1.83;;
48203;SDS011;33994;50.998;5.864;2023-07-20T12:09:35;4.40;;;2.33;;
48203;SDS011;33994;50.998;5.864;2023-07-20T12:12:38;4.15;;;2.00;;
48203;SDS011;33994;50.998;5.864;2023-07-20T12:15:43;4.60;;;1.50;;
48203;SDS011;33994;50.998;5.864;2023-07-20T12:18:46;2.20;;;1.65;;
48203;SDS011;33994;50.998;5.864;2023-07-20T12:21:49;3.38;;;1.80;;
48203;SDS011;33994;50.998;5.864;2023-07-20T12:24:53;2.13;;;1.55;;
48203;SDS011;33994;50.998;5.864;2023-07-20T12:27:56;2.03;;;1.50;;
48203;SDS011;33994;50.998;5.864;2023-07-20T12:31:05;3.75;;;1.60;;
48203;SDS011;33994;50.998;5.864;2023-07-20T12:34:08;3.60;;;1.83;;
48203;SDS011;33994;50.998;5.864;2023-07-20T12:37:11;2.33;;;1.20;;
48203;SDS011;33994;50.998;5.864;2023-07-20T12:40:14;3.45;;;1.80;;
48203;SDS011;33994;50.998;5.864;2023-07-20T12:43:17;2.33;;;1.30;;
48203;SDS011;33994;50.998;5.864;2023-07-20T12:46:22;1.90;;;1.20;;
48203;SDS011;33994;50.998;5.864;2023-07-20T12:49:25;2.22;;;1.40;;
48203;SDS011;33994;50.998;5.864;2023-07-20T12:52:28;1.73;;;1.05;;
48203;SDS011;33994;50.998;5.864;2023-07-20T12:55:31;2.72;;;1.77;;
48203;SDS011;33994;50.998;5.864;2023-07-20T12:58:34;3.80;;;1.40;;
48203;SDS011;33994;50.998;5.864;2023-07-20T13:01:39;2.17;;;1.30;;
48203;SDS011;33994;50.998;5.864;2023-07-20T13:04:42;4.45;;;1.83;;
48203;SDS011;33994;50.998;5.864;2023-07-20T13:07:45;2.53;;;1.67;;
48203;SDS011;33994;50.998;5.864;2023-07-20T13:10:49;3.95;;;1.73;;
48203;SDS011;33994;50.998;5.864;2023-07-20T13:13:52;4.03;;;1.80;;
48203;SDS011;33994;50.998;5.864;2023-07-20T13:16:56;4.30;;;1.70;;
48203;SDS011;33994;50.998;5.864;2023-07-20T13:19:59;3.20;;;1.83;;
48203;SDS011;33994;50.998;5.864;2023-07-20T13:23:03;1.58;;;1.48;;
48203;SDS011;33994;50.998;5.864;2023-07-20T13:26:06;2.13;;;1.63;;
48203;SDS011;33994;50.998;5.864;2023-07-20T13:29:10;3.35;;;1.63;;
48203;SDS011;33994;50.998;5.864;2023-07-20T13:32:15;4.10;;;1.50;;
48203;SDS011;33994;50.998;5.864;2023-07-20T13:35:18;2.35;;;1.50;;
48203;SDS011;33994;50.998;5.864;2023-07-20T13:38:22;3.80;;;1.48;;
48203;SDS011;33994;50.998;5.864;2023-07-20T13:41:25;1.65;;;1.33;;
48203;SDS011;33994;50.998;5.864;2023-07-20T13:44:28;1.85;;;1.40;;
48203;SDS011;33994;50.998;5.864;2023-07-20T13:47:33;2.65;;;1.33;;
48203;SDS011;33994;50.998;5.864;2023-07-20T13:50:36;5.50;;;1.63;;
48203;SDS011;33994;50.998;5.864;2023-07-20T13:53:39;3.42;;;1.42;;
48203;SDS011;33994;50.998;5.864;2023-07-20T13:56:42;1.67;;;1.48;;
48203;SDS011;33994;50.998;5.864;2023-07-20T13:59:45;2.95;;;1.45;;
48203;SDS011;33994;50.998;5.864;2023-07-20T14:02:50;1.77;;;1.20;;
48203;SDS011;33994;50.998;5.864;2023-07-20T14:05:53;4.13;;;1.50;;
48203;SDS011;33994;50.998;5.864;2023-07-20T14:08:56;3.50;;;1.27;;
48203;SDS011;33994;50.998;5.864;2023-07-20T14:11:59;8.80;;;1.63;;
48203;SDS011;33994;50.998;5.864;2023-07-20T14:15:03;3.78;;;1.15;;
48203;SDS011;33994;50.998;5.864;2023-07-20T14:18:08;2.40;;;1.38;;
48203;SDS011;33994;50.998;5.864;2023-07-20T14:21:11;2.88;;;1.27;;
48203;SDS011;33994;50.998;5.864;2023-07-20T14:24:15;3.55;;;1.40;;
48203;SDS011;33994;50.998;5.864;2023-07-20T14:27:18;2.10;;;1.67;;
48203;SDS011;33994;50.998;5.864;2023-07-20T14:30:21;2.63;;;1.38;;
48203;SDS011;33994;50.998;5.864;2023-07-20T14:33:26;2.47;;;1.30;;
48203;SDS011;33994;50.998;5.864;2023-07-20T14:36:30;2.45;;;1.50;;
48203;SDS011;33994;50.998;5.864;2023-07-20T14:39:33;2.70;;;1.55;;
48203;SDS011;33994;50.998;5.864;2023-07-20T14:42:36;2.45;;;1.50;;
48203;SDS011;33994;50.998;5.864;2023-07-20T14:45:40;2.00;;;1.30;;
48203;SDS011;33994;50.998;5.864;2023-07-20T14:48:45;2.95;;;1.20;;
48203;SDS011;33994;50.998;5.864;2023-07-20T14:51:48;5.22;;;1.33;;
48203;SDS011;33994;50.998;5.864;2023-07-20T14:54:51;3.13;;;1.38;;
48203;SDS011;33994;50.998;5.864;2023-07-20T14:57:54;1.48;;;1.17;;
48203;SDS011;33994;50.998;5.864;2023-07-20T15:00:57;1.65;;;1.38;;
48203;SDS011;33994;50.998;5.864;2023-07-20T15:04:02;2.15;;;1.35;;
48203;SDS011;33994;50.998;5.864;2023-07-20T15:07:05;1.33;;;1.17;;
48203;SDS011;33994;50.998;5.864;2023-07-20T15:10:08;1.95;;;1.15;;
48203;SDS011;33994;50.998;5.864;2023-07-20T15:13:11;1.75;;;1.40;;
48203;SDS011;33994;50.998;5.864;2023-07-20T15:16:15;2.47;;;1.20;;
48203;SDS011;33994;50.998;5.864;2023-07-20T15:19:19;4.10;;;1.75;;
48203;SDS011;33994;50.998;5.864;2023-07-20T15:22:22;1.75;;;1.30;;
48203;SDS011;33994;50.998;5.864;2023-07-20T15:25:26;3.00;;;1.20;;
48203;SDS011;33994;50.998;5.864;2023-07-20T15:28:29;3.10;;;1.35;;
48203;SDS011;33994;50.998;5.864;2023-07-20T15:31:32;2.60;;;1.35;;
48203;SDS011;33994;50.998;5.864;2023-07-20T15:34:37;3.28;;;1.65;;
48203;SDS011;33994;50.998;5.864;2023-07-20T15:37:40;6.30;;;1.63;;
48203;SDS011;33994;50.998;5.864;2023-07-20T15:40:44;1.70;;;1.25;;
48203;SDS011;33994;50.998;5.864;2023-07-20T15:43:47;3.22;;;1.20;;
48203;SDS011;33994;50.998;5.864;2023-07-20T15:46:50;3.00;;;1.38;;
48203;SDS011;33994;50.998;5.864;2023-07-20T15:49:55;2.00;;;1.58;;
48203;SDS011;33994;50.998;5.864;2023-07-20T15:52:58;2.63;;;1.70;;
48203;SDS011;33994;50.998;5.864;2023-07-20T15:56:01;3.05;;;1.42;;
48203;SDS011;33994;50.998;5.864;2023-07-20T15:59:05;2.17;;;1.27;;
48203;SDS011;33994;50.998;5.864;2023-07-20T16:02:09;2.50;;;1.58;;
48203;SDS011;33994;50.998;5.864;2023-07-20T16:05:13;2.45;;;1.30;;
48203;SDS011;33994;50.998;5.864;2023-07-20T16:08:16;1.55;;;1.00;;
48203;SDS011;33994;50.998;5.864;2023-07-20T16:11:20;2.97;;;1.30;;
48203;SDS011;33994;50.998;5.864;2023-07-20T16:14:23;2.55;;;1.50;;
48203;SDS011;33994;50.998;5.864;2023-07-20T16:17:26;1.85;;;1.25;;
48203;SDS011;33994;50.998;5.864;2023-07-20T16:20:30;5.10;;;1.63;;
48203;SDS011;33994;50.998;5.864;2023-07-20T16:23:34;4.45;;;2.40;;
48203;SDS011;33994;50.998;5.864;2023-07-20T16:26:37;1.77;;;1.50;;
48203;SDS011;33994;50.998;5.864;2023-07-20T16:29:41;1.48;;;1.05;;
48203;SDS011;33994;50.998;5.864;2023-07-20T16:32:44;1.85;;;1.02;;
48203;SDS011;33994;50.998;5.864;2023-07-20T16:35:49;2.30;;;1.45;;
48203;SDS011;33994;50.998;5.864;2023-07-20T16:38:52;1.17;;;0.93;;
48203;SDS011;33994;50.998;5.864;2023-07-20T16:41:55;2.75;;;1.00;;
48203;SDS011;33994;50.998;5.864;2023-07-20T16:44:58;0.98;;;0.93;;
48203;SDS011;33994;50.998;5.864;2023-07-20T16:48:01;3.28;;;1.33;;
48203;SDS011;33994;50.998;5.864;2023-07-20T16:51:07;2.38;;;1.27;;
48203;SDS011;33994;50.998;5.864;2023-07-20T16:54:10;3.30;;;1.00;;
48203;SDS011;33994;50.998;5.864;2023-07-20T16:57:13;1.10;;;1.00;;
48203;SDS011;33994;50.998;5.864;2023-07-20T17:00:16;2.38;;;1.42;;
48203;SDS011;33994;50.998;5.864;2023-07-20T17:03:20;2.30;;;1.13;;
48203;SDS011;33994;50.998;5.864;2023-07-20T17:06:24;2.67;;;1.23;;
48203;SDS011;33994;50.998;5.864;2023-07-20T17:09:27;2.80;;;1.50;;
48203;SDS011;33994;50.998;5.864;2023-07-20T17:12:31;1.70;;;1.40;;
48203;SDS011;33994;50.998;5.864;2023-07-20T17:15:34;2.22;;;1.60;;
48203;SDS011;33994;50.998;5.864;2023-07-20T17:18:37;1.52;;;1.20;;
48203;SDS011;33994;50.998;5.864;2023-07-20T17:21:42;1.75;;;1.33;;
48203;SDS011;33994;50.998;5.864;2023-07-20T17:24:46;1.50;;;1.08;;
48203;SDS011;33994;50.998;5.864;2023-07-20T17:27:49;1.55;;;1.42;;
48203;SDS011;33994;50.998;5.864;2023-07-20T17:30:58;2.25;;;1.25;;
48203;SDS011;33994;50.998;5.864;2023-07-20T17:34:02;1.40;;;0.93;;
48203;SDS011;33994;50.998;5.864;2023-07-20T17:37:06;2.15;;;1.20;;
48203;SDS011;33994;50.998;5.864;2023-07-20T17:40:10;3.28;;;1.20;;
48203;SDS011;33994;50.998;5.864;2023-07-20T17:43:13;3.25;;;1.30;;
48203;SDS011;33994;50.998;5.864;2023-07-20T17:46:17;1.50;;;0.93;;
48203;SDS011;33994;50.998;5.864;2023-07-20T17:49:19;1.88;;;1.27;;
48203;SDS011;33994;50.998;5.864;2023-07-20T17:52:24;4.03;;;1.27;;
48203;SDS011;33994;50.998;5.864;2023-07-20T17:55:28;2.70;;;1.30;;
48203;SDS011;33994;50.998;5.864;2023-07-20T17:58:31;2.15;;;1.38;;
48203;SDS011;33994;50.998;5.864;2023-07-20T18:01:34;2.30;;;1.10;;
48203;SDS011;33994;50.998;5.864;2023-07-20T18:04:37;5.38;;;1.45;;
48203;SDS011;33994;50.998;5.864;2023-07-20T18:07:41;2.78;;;1.38;;
48203;SDS011;33994;50.998;5.864;2023-07-20T18:10:44;3.35;;;1.40;;
48203;SDS011;33994;50.998;5.864;2023-07-20T18:13:48;5.28;;;1.75;;
48203;SDS011;33994;50.998;5.864;2023-07-20T18:16:51;2.00;;;1.45;;
48203;SDS011;33994;50.998;5.864;2023-07-20T18:19:54;6.10;;;1.70;;
48203;SDS011;33994;50.998;5.864;2023-07-20T18:22:59;3.35;;;1.50;;
48203;SDS011;33994;50.998;5.864;2023-07-20T18:26:02;9.52;;;2.28;;
48203;SDS011;33994;50.998;5.864;2023-07-20T18:29:05;3.28;;;1.48;;
48203;SDS011;33994;50.998;5.864;2023-07-20T18:32:08;2.17;;;1.30;;
48203;SDS011;33994;50.998;5.864;2023-07-20T18:35:11;1.60;;;1.50;;